Time;durP1;ratioP1;P1;durP2;ratioP2;P2;SDS_P1;SDS_P2;PMS_P1;PMS_P2;Temp;Humidity;BMP_temperature;BMP_pressure;BME280_temperature;BME280_humidity;BME280_pressure;Samples;Min_cycle;Max_cycle;Signal;HPM_P1;HPM_P2
2022/04/01 00:01:48;;;;;;;8.27;5.60;;;;;;;-0.21;100.00;100481.22;4953251;28;20390;-35
2022/04/01 00:04:14;;;;;;;7.43;5.38;;;;;;;-0.23;100.00;100473.41;4960436;28;20058;-35
2022/04/01 00:06:40;;;;;;;7.05;5.05;;;;;;;-0.20;100.00;100487.34;4949290;29;20375;-37
2022/04/01 00:09:06;;;;;;;11.07;5.68;;;;;;;-0.19;100.00;100489.84;4960192;28;20073;-36
2022/04/01 00:11:31;;;;;;;11.38;5.40;;;;;;;-0.19;100.00;100484.56;4968142;28;20518;-37
2022/04/01 00:13:56;;;;;;;10.77;5.68;;;;;;;-0.22;100.00;100490.94;4968837;28;20162;-36
2022/04/01 00:16:22;;;;;;;7.65;4.75;;;;;;;-0.20;100.00;100497.91;4968396;28;20126;-37
2022/04/01 00:18:47;;;;;;;9.05;5.10;;;;;;;-0.22;100.00;100498.88;4951760;28;20106;-38
2022/04/01 00:21:13;;;;;;;7.47;4.95;;;;;;;-0.21;100.00;100507.66;4951758;28;20031;-38
2022/04/01 00:23:38;;;;;;;7.30;4.50;;;;;;;-0.20;100.00;100497.91;4962325;28;20067;-40
2022/04/01 00:26:03;;;;;;;8.95;5.00;;;;;;;-0.20;100.00;100509.34;4966135;28;20038;-38
2022/04/01 00:28:29;;;;;;;8.13;5.05;;;;;;;-0.20;100.00;100498.75;4948500;28;20027;-37
2022/04/01 00:30:54;;;;;;;10.52;5.88;;;;;;;-0.19;100.00;100486.38;4970685;28;20026;-38
2022/04/01 00:33:20;;;;;;;11.95;6.20;;;;;;;-0.17;100.00;100497.69;4961427;28;20173;-38
2022/04/01 00:35:45;;;;;;;7.90;5.45;;;;;;;-0.20;100.00;100504.03;4950101;29;20023;-38
2022/04/01 00:38:11;;;;;;;8.00;5.30;;;;;;;-0.21;100.00;100505.03;4967140;28;20114;-37
2022/04/01 00:40:37;;;;;;;7.80;5.43;;;;;;;-0.18;100.00;100511.88;4969854;28;20107;-38
2022/04/01 00:43:02;;;;;;;7.95;5.35;;;;;;;-0.17;100.00;100509.09;4968812;28;20272;-38
2022/04/01 00:45:27;;;;;;;6.95;4.75;;;;;;;-0.21;100.00;100512.97;4969886;28;20077;-36
2022/04/01 00:47:55;;;;;;;6.45;4.90;;;;;;;-0.22;100.00;100522.66;4967972;28;20517;-36
2022/04/01 00:50:22;;;;;;;8.57;4.72;;;;;;;-0.23;100.00;100515.72;4970143;28;20065;-36
2022/04/01 00:52:48;;;;;;;7.38;5.30;;;;;;;-0.24;100.00;100524.63;4969927;28;20030;-35
2022/04/01 00:55:13;;;;;;;7.45;5.30;;;;;;;-0.25;100.00;100527.38;4970089;28;20027;-34
2022/04/01 00:57:39;;;;;;;9.05;5.60;;;;;;;-0.26;100.00;100526.53;4951555;28;20052;-34
2022/04/01 01:00:07;;;;;;;9.02;5.07;;;;;;;-0.23;100.00;100530.75;4968568;28;20055;-33
2022/04/01 01:02:35;;;;;;;6.75;5.07;;;;;;;-0.22;100.00;100530.59;4968964;28;20043;-33
2022/04/01 01:05:00;;;;;;;9.43;5.32;;;;;;;-0.25;100.00;100535.31;4969572;28;20034;-33
2022/04/01 01:07:26;;;;;;;8.15;5.50;;;;;;;-0.26;100.00;100525.69;4968866;28;20047;-33
2022/04/01 01:09:52;;;;;;;9.10;5.82;;;;;;;-0.26;100.00;100531.81;4970172;28;20137;-32
2022/04/01 01:12:17;;;;;;;9.82;5.85;;;;;;;-0.27;100.00;100543.34;4970202;28;20035;-32
2022/04/01 01:14:44;;;;;;;9.80;5.93;;;;;;;-0.28;100.00;100539.03;4968591;28;20400;-31
2022/04/01 01:17:11;;;;;;;9.82;5.32;;;;;;;-0.26;100.00;100546.84;4969866;28;20046;-32
2022/04/01 01:19:38;;;;;;;10.47;6.27;;;;;;;-0.26;100.00;100541.56;4968806;28;20022;-32
2022/04/01 01:22:04;;;;;;;10.45;6.22;;;;;;;-0.27;100.00;100546.00;4969020;28;20061;-32
2022/04/01 01:24:35;;;;;;;8.30;5.65;;;;;;;-0.24;100.00;100540.47;4969963;28;20489;-33
2022/04/01 01:27:01;;;;;;;8.27;5.78;;;;;;;-0.24;100.00;100545.78;4969992;28;20031;-33
2022/04/01 01:29:28;;;;;;;11.02;6.15;;;;;;;-0.22;100.00;100553.56;4968915;28;20035;-34
2022/04/01 01:31:59;;;;;;;9.48;6.30;;;;;;;-0.22;100.00;100554.41;4969525;28;20450;-33
2022/04/01 01:34:26;;;;;;;9.35;5.97;;;;;;;-0.24;100.00;100535.19;4969690;28;20084;-34
2022/04/01 01:36:52;;;;;;;10.68;6.40;;;;;;;-0.20;100.00;100551.66;4969737;28;20033;-34
2022/04/01 01:39:18;;;;;;;13.05;6.25;;;;;;;-0.21;100.00;100549.97;4969462;28;20693;-32
2022/04/01 01:41:45;;;;;;;14.68;6.25;;;;;;;-0.22;100.00;100549.13;4969773;28;20092;-34
2022/04/01 01:44:11;;;;;;;9.63;6.68;;;;;;;-0.25;100.00;100552.00;4969344;28;20041;-34
2022/04/01 01:46:37;;;;;;;8.35;6.15;;;;;;;-0.22;100.00;100553.56;4969104;28;20027;-33
2022/04/01 01:49:02;;;;;;;8.80;6.10;;;;;;;-0.20;100.00;100550.81;4967941;28;20038;-33
2022/04/01 01:56:55;;;;;;;9.73;6.20;;;;;;;-0.18;100.00;100559.47;4969372;28;20143;-36
2022/04/01 01:59:21;;;;;;;10.90;6.65;;;;;;;-0.22;100.00;100559.69;4969260;28;20110;-35
2022/04/01 02:01:47;;;;;;;9.93;6.43;;;;;;;-0.22;100.00;100562.34;4969250;28;20110;-36
2022/04/01 02:04:12;;;;;;;9.93;6.15;;;;;;;-0.22;100.00;100564.97;4967301;28;20035;-35
2022/04/01 02:06:38;;;;;;;11.52;6.25;;;;;;;-0.19;100.00;100555.97;4968518;28;20358;-36
2022/04/01 02:09:03;;;;;;;8.70;6.38;;;;;;;-0.19;100.00;100563.91;4969094;28;20524;-37
2022/04/01 02:11:29;;;;;;;9.82;6.28;;;;;;;-0.18;100.00;100565.59;4969392;28;20042;-37
2022/04/01 02:13:55;;;;;;;9.80;6.53;;;;;;;-0.15;100.00;100575.09;4967909;28;20031;-37
2022/04/01 02:16:21;;;;;;;10.13;6.07;;;;;;;-0.20;100.00;100567.53;4967456;28;20035;-36
2022/04/01 02:18:47;;;;;;;9.90;5.82;;;;;;;-0.20;100.00;100564.88;4967913;28;20050;-37
2022/04/01 02:21:15;;;;;;;9.32;6.22;;;;;;;-0.17;100.00;100566.44;4967708;28;20059;-35
2022/04/01 02:23:41;;;;;;;7.75;5.38;;;;;;;-0.18;100.00;100567.41;4948482;28;20366;-35
2022/04/01 02:26:07;;;;;;;8.60;5.90;;;;;;;-0.22;100.00;100572.91;4965204;28;20066;-37
2022/04/01 02:28:34;;;;;;;8.60;5.53;;;;;;;-0.19;100.00;100578.94;4968475;28;20442;-39
2022/04/01 02:31:00;;;;;;;8.65;5.63;;;;;;;-0.20;100.00;100577.28;4968698;28;20031;-38
2022/04/01 02:33:27;;;;;;;8.13;5.72;;;;;;;-0.18;100.00;100578.00;4968866;28;20027;-38
2022/04/01 02:35:54;;;;;;;9.65;6.20;;;;;;;-0.19;100.00;100587.72;4968902;28;20064;-38
2022/04/01 02:38:19;;;;;;;9.90;6.15;;;;;;;-0.17;100.00;100584.97;4968342;28;20039;-39
2022/04/01 02:40:44;;;;;;;12.57;7.15;;;;;;;-0.16;100.00;100586.63;4968924;28;20177;-40
2022/04/01 02:43:10;;;;;;;10.77;6.13;;;;;;;-0.18;100.00;100586.75;4968162;28;20026;-39
2022/04/01 02:45:35;;;;;;;11.80;6.55;;;;;;;-0.17;100.00;100592.91;4966923;28;20035;-46
2022/04/01 02:48:01;;;;;;;8.07;5.82;;;;;;;-0.18;100.00;100591.22;4968407;28;20038;-44
2022/04/01 02:50:26;;;;;;;8.52;6.00;;;;;;;-0.16;100.00;100594.56;4967836;28;20035;-39
2022/04/01 02:52:51;;;;;;;10.98;6.07;;;;;;;-0.17;100.00;100590.25;4968817;28;20038;-43
2022/04/01 02:55:17;;;;;;;16.60;7.15;;;;;;;-0.19;100.00;100600.09;4968377;28;20027;-43
2022/04/01 02:57:42;;;;;;;10.13;7.13;;;;;;;-0.17;100.00;100608.75;4968558;28;20075;-43
2022/04/01 03:00:09;;;;;;;11.23;7.07;;;;;;;-0.15;100.00;100607.69;4968456;28;20066;-41
2022/04/01 03:02:37;;;;;;;12.15;6.53;;;;;;;-0.14;100.00;100603.22;4968577;28;20043;-39
2022/04/01 03:05:04;;;;;;;11.00;6.75;;;;;;;-0.15;100.00;100609.50;4968001;28;20031;-41
2022/04/01 03:07:30;;;;;;;11.95;7.47;;;;;;;-0.15;100.00;100612.13;4968477;28;20077;-39
2022/04/01 03:09:56;;;;;;;11.88;6.35;;;;;;;-0.12;100.00;100611.91;4968341;28;20035;-40
2022/04/01 03:12:21;;;;;;;11.93;6.85;;;;;;;-0.13;100.00;100615.47;4967962;28;20078;-45
2022/04/01 03:14:48;;;;;;;10.35;6.60;;;;;;;-0.13;100.00;100610.19;4968405;28;20385;-40
2022/04/01 03:17:13;;;;;;;11.85;6.43;;;;;;;-0.12;100.00;100618.03;4968377;28;20037;-43
2022/04/01 03:19:39;;;;;;;9.98;7.55;;;;;;;-0.13;100.00;100616.34;4967966;28;20501;-42
2022/04/01 03:22:05;;;;;;;11.93;7.20;;;;;;;-0.13;100.00;100621.63;4965788;28;20129;-42
2022/04/01 03:24:31;;;;;;;12.25;7.10;;;;;;;-0.13;100.00;100623.41;4966583;28;20027;-40
2022/04/01 03:26:56;;;;;;;13.85;7.40;;;;;;;-0.13;100.00;100624.28;4968164;28;20168;-42
2022/04/01 03:29:22;;;;;;;14.35;7.38;;;;;;;-0.14;100.00;100625.22;4967620;28;20485;-41
2022/04/01 03:31:48;;;;;;;12.90;7.30;;;;;;;-0.12;100.00;100638.34;4967676;28;20039;-42
2022/04/01 03:34:14;;;;;;;13.70;7.65;;;;;;;-0.15;100.00;100638.59;4967844;28;20031;-45
2022/04/01 03:36:39;;;;;;;12.65;8.32;;;;;;;-0.15;100.00;100633.28;4963114;28;20042;-45
2022/04/01 03:39:05;;;;;;;15.25;8.50;;;;;;;-0.13;100.00;100639.28;4966670;28;20031;-41
2022/04/01 03:41:30;;;;;;;13.00;7.97;;;;;;;-0.11;100.00;100647.97;4966666;28;20038;-42
2022/04/01 03:43:56;;;;;;;11.48;7.57;;;;;;;-0.13;100.00;100644.56;4967889;28;20106;-43
2022/04/01 03:46:24;;;;;;;19.13;8.27;;;;;;;-0.14;100.00;100653.50;4967182;28;20034;-42
2022/04/01 03:48:57;;;;;;;15.55;8.90;;;;;;;-0.16;100.00;100658.88;4966585;28;20481;-43
2022/04/01 03:51:25;;;;;;;20.70;8.65;;;;;;;-0.15;100.00;100654.47;4966265;28;20121;-40
2022/04/01 03:54:00;;;;;;;13.55;7.88;;;;;;;-0.18;100.00;100652.88;4967572;28;20073;-40
2022/04/01 03:56:34;;;;;;;12.05;7.63;;;;;;;-0.15;100.00;100659.75;4967586;28;20118;-41
2022/04/01 03:59:01;;;;;;;14.23;7.22;;;;;;;-0.15;100.00;100657.09;4947178;29;20130;-42
2022/04/01 04:01:27;;;;;;;14.93;8.65;;;;;;;-0.18;100.00;100662.63;4948467;28;20054;-42
2022/04/01 04:03:55;;;;;;;12.25;7.22;;;;;;;-0.17;100.00;100682.81;4965465;28;20547;-40
2022/04/01 04:06:22;;;;;;;12.57;7.75;;;;;;;-0.18;100.00;100671.41;4967236;28;20092;-41
2022/04/01 04:08:50;;;;;;;15.55;7.55;;;;;;;-0.16;100.00;100674.75;4966162;28;20067;-43
2022/04/01 04:11:17;;;;;;;13.80;7.32;;;;;;;-0.19;100.00;100674.16;4967563;28;20038;-40
2022/04/01 04:13:45;;;;;;;14.80;7.43;;;;;;;-0.18;100.00;100681.16;4966082;28;20062;-46
2022/04/01 04:16:19;;;;;;;14.38;7.95;;;;;;;-0.16;100.00;100695.06;4966001;28;20293;-46
2022/04/01 04:18:51;;;;;;;10.35;6.82;;;;;;;-0.19;100.00;100690.03;4965604;28;20035;-45
2022/04/01 04:21:25;;;;;;;11.40;6.47;;;;;;;-0.17;100.00;100698.69;4966799;28;20089;-47
2022/04/01 04:23:55;;;;;;;14.45;7.07;;;;;;;-0.19;100.00;100700.59;4965862;28;20061;-41
2022/04/01 04:26:35;;;;;;;12.85;6.60;;;;;;;-0.19;100.00;100700.59;4967457;28;20042;-40
2022/04/01 04:29:09;;;;;;;11.57;7.03;;;;;;;-0.17;100.00;100693.41;4967316;28;20057;-42
2022/04/01 04:31:35;;;;;;;13.00;6.38;;;;;;;-0.16;100.00;100710.94;4950773;28;20278;-44
2022/04/01 04:34:03;;;;;;;15.60;6.57;;;;;;;-0.22;100.00;100720.19;4960171;28;20108;-46
2022/04/01 04:36:42;;;;;;;18.05;7.05;;;;;;;-0.17;100.00;100722.50;4970035;28;20180;-45
2022/04/01 04:39:08;;;;;;;;;;;;;;;-0.19;100.00;100724.41;4970854;28;20534;-49
2022/04/01 04:41:34;;;;;;;17.02;6.50;;;;;;;-0.20;100.00;100720.94;4970577;28;19910;-46
2022/04/01 04:44:00;;;;;;;10.60;5.78;;;;;;;-0.17;100.00;100733.06;4970137;28;20419;-48
2022/04/01 04:46:30;;;;;;;12.27;6.82;;;;;;;-0.19;100.00;100733.19;4965793;28;20486;-45
2022/04/01 04:48:57;;;;;;;14.10;7.30;;;;;;;-0.20;100.00;100733.31;4968760;28;20505;-49
2022/04/01 04:51:26;;;;;;;14.63;7.82;;;;;;;-0.18;100.00;100734.06;4969405;28;20126;-43
2022/04/01 04:53:51;;;;;;;15.07;8.30;;;;;;;-0.18;100.00;100737.53;4969153;28;20049;-46
2022/04/01 04:56:20;;;;;;;14.30;7.10;;;;;;;-0.16;100.00;100740.03;4968302;28;20122;-48
2022/04/01 04:58:47;;;;;;;19.83;7.30;;;;;;;-0.15;100.00;100742.59;4961104;28;20058;-43
2022/04/01 05:01:15;;;;;;;13.18;6.95;;;;;;;-0.13;100.00;100753.91;4959805;28;20081;-45
2022/04/01 05:03:47;;;;;;;;;;;;;;;-0.14;100.00;100756.66;4970213;28;20039;-48
2022/04/01 05:06:17;;;;;;;13.65;6.72;;;;;;;-0.11;100.00;100764.34;4958577;28;19914;-48
2022/04/01 05:08:57;;;;;;;14.23;6.28;;;;;;;-0.12;100.00;100765.31;4954708;28;20051;-45
2022/04/01 05:11:36;;;;;;;12.35;6.28;;;;;;;-0.16;100.00;100767.34;4953163;28;20050;-46
2022/04/01 05:14:06;;;;;;;14.65;6.30;;;;;;;-0.10;100.00;100779.28;4967227;28;20050;-43
2022/04/01 05:16:54;;;;;;;13.82;5.95;;;;;;;-0.09;100.00;100786.25;4952431;28;20022;-47
2022/04/01 05:19:23;;;;;;;;;;;;;;;-0.13;100.00;100776.84;4968486;28;20085;-46
2022/04/01 05:22:04;;;;;;;10.57;5.38;;;;;;;-0.12;100.00;100783.84;4953815;28;19957;-44
2022/04/01 05:24:42;;;;;;;12.95;5.60;;;;;;;-0.13;100.00;100792.72;4965758;28;20512;-45
2022/04/01 05:27:26;;;;;;;12.88;6.25;;;;;;;-0.15;100.00;100798.13;4966185;28;20148;-44
2022/04/01 05:30:04;;;;;;;13.57;5.35;;;;;;;-0.11;100.00;100801.38;4952433;28;20035;-43
2022/04/01 05:32:33;;;;;;;9.00;5.68;;;;;;;-0.13;100.00;100805.94;4969611;28;20398;-48
2022/04/01 05:35:00;;;;;;;12.60;5.55;;;;;;;-0.10;100.00;100822.44;4969352;28;20526;-46
2022/04/01 05:37:28;;;;;;;12.67;5.93;;;;;;;-0.09;100.00;100823.28;4967510;28;20076;-45
2022/04/01 05:39:54;;;;;;;13.43;5.70;;;;;;;-0.06;100.00;100833.63;4968910;28;20030;-44
2022/04/01 05:42:21;;;;;;;12.65;5.88;;;;;;;-0.01;100.00;100839.44;4959210;28;20293;-48
2022/04/01 05:44:47;;;;;;;15.32;5.55;;;;;;;-0.02;100.00;100833.28;4968732;28;20386;-48
2022/04/01 05:47:12;;;;;;;12.98;5.45;;;;;;;0.00;100.00;100838.50;4965814;28;20035;-43
2022/04/01 05:49:43;;;;;;;11.52;4.78;;;;;;;0.03;100.00;100846.19;4959025;28;20064;-45
2022/04/01 05:52:09;;;;;;;16.40;5.95;;;;;;;0.07;100.00;100842.34;4954642;28;20371;-43
2022/04/01 05:54:37;;;;;;;14.07;5.13;;;;;;;0.05;100.00;100846.91;4958971;28;20449;-45
2022/04/01 05:57:03;;;;;;;13.48;4.88;;;;;;;0.12;100.00;100852.59;4964972;28;20129;-47
2022/04/01 05:59:28;;;;;;;7.60;4.90;;;;;;;0.11;100.00;100850.91;4959842;28;20520;-47
2022/04/01 06:02:31;;;;;;;13.88;4.90;;;;;;;0.13;100.00;100860.44;4961008;28;20030;-50
2022/04/01 06:05:29;;;;;;;11.65;5.07;;;;;;;0.13;99.71;100857.78;4962840;28;20126;-47
2022/04/01 06:07:54;;;;;;;11.73;5.13;;;;;;;0.17;99.94;100856.59;4958620;28;20127;-50
2022/04/01 06:10:34;;;;;;;11.82;4.68;;;;;;;0.23;99.73;100863.22;4968018;28;20105;-50
2022/04/01 06:13:34;;;;;;;11.90;5.70;;;;;;;0.22;99.63;100865.03;4958012;28;20134;-49
2022/04/01 06:16:08;;;;;;;13.75;5.68;;;;;;;0.24;99.52;100879.94;4961056;28;20031;-40
2022/04/01 06:19:06;;;;;;;17.15;5.38;;;;;;;0.27;99.38;100869.97;4968758;28;20118;-38
2022/04/01 06:21:38;;;;;;;18.90;5.07;;;;;;;0.26;99.50;100870.09;5012888;28;20032;-38
2022/04/01 06:24:11;;;;;;;15.43;5.20;;;;;;;0.27;99.37;100882.38;4982013;28;20034;-37
2022/04/01 06:26:48;;;;;;;18.45;5.68;;;;;;;0.26;99.10;100875.38;4953372;28;20383;-38
2022/04/01 06:29:27;;;;;;;13.40;5.43;;;;;;;0.33;99.09;100884.56;5047963;28;20508;-38
2022/04/01 06:31:59;;;;;;;12.82;4.88;;;;;;;0.37;99.16;100884.22;4965849;28;20122;-37
2022/04/01 06:34:36;;;;;;;12.13;5.53;;;;;;;0.40;99.12;100891.94;4967688;28;20026;-37
2022/04/01 06:37:04;;;;;;;13.13;5.72;;;;;;;0.42;99.08;100884.72;4967508;28;20391;-37
2022/04/01 06:40:11;;;;;;;12.38;5.38;;;;;;;0.47;98.58;100894.09;4953894;28;20039;-40
2022/04/01 06:42:38;;;;;;;12.45;5.28;;;;;;;0.47;98.30;100905.53;4959136;28;20486;-40
2022/04/01 06:45:08;;;;;;;12.50;4.85;;;;;;;0.50;97.90;100902.69;4960242;28;20186;-39
2022/04/01 06:47:35;;;;;;;13.20;5.25;;;;;;;0.50;97.89;100910.63;4967210;28;20122;-39
2022/04/01 06:50:00;;;;;;;9.68;5.38;;;;;;;0.54;97.49;100911.22;4966879;28;20442;-40
2022/04/01 06:52:26;;;;;;;12.50;4.45;;;;;;;0.55;97.54;100919.03;4974170;28;20111;-37
2022/04/01 06:54:52;;;;;;;15.52;4.30;;;;;;;0.58;97.24;100913.53;4973960;28;20122;-40
2022/04/01 06:57:18;;;;;;;10.77;4.40;;;;;;;0.56;96.49;100919.91;4966558;28;20035;-39
2022/04/01 06:59:43;;;;;;;12.02;4.32;;;;;;;0.56;96.21;100926.03;4961795;28;20491;-40
2022/04/01 07:02:08;;;;;;;8.05;4.07;;;;;;;0.60;95.66;100922.19;4954733;28;20019;-44
2022/04/01 07:04:34;;;;;;;13.00;3.78;;;;;;;0.64;95.23;100928.97;4966099;28;20035;-38
2022/04/01 07:06:59;;;;;;;10.40;3.83;;;;;;;0.63;95.00;100935.22;4952703;28;20089;-38
2022/04/01 07:09:25;;;;;;;7.75;4.32;;;;;;;0.67;95.20;100937.63;4962346;28;20120;-39
2022/04/01 07:11:51;;;;;;;12.82;4.38;;;;;;;0.68;95.20;100929.56;4966958;28;20045;-39
2022/04/01 07:14:16;;;;;;;7.00;3.72;;;;;;;0.70;95.06;100932.94;4965995;28;20122;-40
2022/04/01 07:16:41;;;;;;;9.25;3.92;;;;;;;0.79;94.72;100939.34;4968265;28;20031;-39
2022/04/01 07:19:07;;;;;;;8.10;3.10;;;;;;;0.77;94.75;100943.94;4970130;28;20058;-38
2022/04/01 07:21:33;;;;;;;7.55;3.63;;;;;;;0.81;94.59;100946.22;4960131;28;20046;-39
2022/04/01 07:24:00;;;;;;;5.50;2.70;;;;;;;0.85;94.38;100944.19;4966205;28;20031;-36
2022/04/01 07:26:25;;;;;;;6.03;2.70;;;;;;;0.90;93.82;100947.34;4967502;28;20035;-35
2022/04/01 07:28:52;;;;;;;8.40;3.33;;;;;;;0.99;93.47;100943.97;4954002;28;20037;-37
2022/04/01 07:34:01;;;;;;;5.82;3.20;;;;;;;1.10;91.98;100951.09;5029052;28;20077;-36
2022/04/01 07:36:26;;;;;;;11.02;3.00;;;;;;;1.24;91.81;100958.00;4967061;28;20085;-37
2022/04/01 07:38:52;;;;;;;11.25;2.72;;;;;;;1.31;90.93;100948.59;5010805;28;20023;-37
2022/04/01 07:41:17;;;;;;;9.13;2.83;;;;;;;1.35;89.71;100955.34;4968486;28;20039;-38
2022/04/01 07:43:42;;;;;;;11.88;3.10;;;;;;;1.39;89.24;100956.78;4956975;28;20110;-36
2022/04/01 07:46:08;;;;;;;8.35;2.60;;;;;;;1.42;89.04;100961.00;4962439;28;20035;-36
2022/04/01 07:48:34;;;;;;;5.00;2.58;;;;;;;1.49;89.07;100967.53;4954544;28;20042;-36
2022/04/01 07:50:59;;;;;;;9.23;3.60;;;;;;;1.60;88.97;100964.88;4955791;28;20466;-36
2022/04/01 07:53:24;;;;;;;6.43;2.60;;;;;;;1.71;88.98;100977.28;4968022;28;20034;-37
2022/04/01 07:55:50;;;;;;;12.00;2.75;;;;;;;1.80;88.73;100973.06;4966509;28;20039;-38
2022/04/01 07:58:16;;;;;;;7.57;2.67;;;;;;;1.86;86.83;100986.69;4958384;28;20481;-38
2022/04/01 08:00:41;;;;;;;10.73;2.42;;;;;;;1.94;87.23;100978.13;4966886;28;20051;-37
2022/04/01 08:03:07;;;;;;;7.47;2.60;;;;;;;1.96;87.07;100977.03;4969600;28;20436;-38
2022/04/01 08:05:33;;;;;;;3.92;2.60;;;;;;;1.98;87.18;100976.91;4968200;28;20057;-38
2022/04/01 08:07:58;;;;;;;5.15;2.30;;;;;;;1.94;85.36;100980.78;4966689;28;20051;-38
2022/04/01 08:10:24;;;;;;;9.57;2.65;;;;;;;1.91;84.20;100989.81;4958975;28;20105;-37
2022/04/01 08:12:49;;;;;;;5.00;2.72;;;;;;;1.94;85.27;100983.44;4971097;28;20035;-37
2022/04/01 08:15:14;;;;;;;6.50;2.38;;;;;;;2.02;84.35;100988.13;4967300;28;20031;-39
2022/04/01 08:17:40;;;;;;;5.57;2.20;;;;;;;2.17;83.69;100989.53;4967969;28;20500;-39
2022/04/01 08:20:07;;;;;;;5.93;2.10;;;;;;;2.27;82.01;101005.59;4971768;28;20046;-36
2022/04/01 08:22:32;;;;;;;9.35;2.25;;;;;;;2.37;82.00;101001.19;4960970;28;20121;-37
2022/04/01 08:24:57;;;;;;;6.40;2.95;;;;;;;2.42;80.84;101001.66;4979120;28;20039;-35
2022/04/01 08:27:23;;;;;;;5.72;1.75;;;;;;;2.47;79.59;101011.91;4973073;28;20015;-36
2022/04/01 08:29:48;;;;;;;3.88;1.73;;;;;;;2.52;80.30;101017.69;4978749;28;20035;-39
2022/04/01 08:32:14;;;;;;;2.55;1.90;;;;;;;2.51;80.30;101008.06;4966578;28;20055;-38
2022/04/01 08:34:39;;;;;;;5.82;2.00;;;;;;;2.58;79.42;101014.53;4966916;28;20027;-36
2022/04/01 08:37:07;;;;;;;8.25;1.95;;;;;;;2.64;77.74;101020.19;4980843;28;20485;-36
2022/04/01 08:39:33;;;;;;;11.80;2.00;;;;;;;2.78;78.89;101020.88;4972808;28;20033;-37
2022/04/01 08:41:58;;;;;;;6.07;1.92;;;;;;;2.76;77.75;101018.31;4975704;28;20058;-36
2022/04/01 08:44:24;;;;;;;4.95;1.50;;;;;;;2.69;76.09;101025.16;4974069;28;20031;-36
2022/04/01 08:46:49;;;;;;;2.53;1.85;;;;;;;2.61;76.57;101030.25;4972517;28;20137;-35
2022/04/01 08:49:15;;;;;;;2.60;1.60;;;;;;;2.59;78.03;101032.19;4974643;28;20035;-41
2022/04/01 08:51:40;;;;;;;7.45;2.13;;;;;;;2.57;76.55;101028.81;4975697;28;20058;-41
2022/04/01 08:54:05;;;;;;;6.10;1.75;;;;;;;2.59;76.78;101035.69;4963881;28;20043;-41
2022/04/01 08:56:31;;;;;;;5.00;1.90;;;;;;;2.60;76.11;101042.66;4966405;28;20041;-41
2022/04/01 08:58:56;;;;;;;2.45;1.45;;;;;;;2.59;76.22;101058.75;4972230;28;20042;-40
2022/04/01 09:01:22;;;;;;;3.45;1.92;;;;;;;2.59;76.62;101056.09;4972307;28;20034;-39
2022/04/01 09:03:48;;;;;;;3.22;1.30;;;;;;;2.58;75.01;101052.59;4970023;28;20030;-38
2022/04/01 09:06:13;;;;;;;3.60;1.50;;;;;;;2.60;75.40;101061.25;4972068;28;20139;-42
2022/04/01 09:08:41;;;;;;;8.60;1.98;;;;;;;2.75;76.01;101064.50;4965912;28;20448;-41
2022/04/01 09:11:08;;;;;;;1.88;1.25;;;;;;;2.95;72.34;101060.19;4956319;28;20091;-44
2022/04/01 09:13:52;;;;;;;3.17;1.50;;;;;;;3.08;70.49;101049.38;4976420;28;20114;-41
2022/04/01 09:16:41;;;;;;;3.95;1.40;;;;;;;3.57;69.30;101055.03;4976166;28;20055;-43
2022/04/01 09:19:08;;;;;;;2.00;1.23;;;;;;;4.05;69.96;101073.06;4963347;28;20034;-43
2022/04/01 09:21:39;;;;;;;4.72;1.50;;;;;;;4.69;68.93;101067.34;4982951;28;20069;-46
2022/04/01 09:24:05;;;;;;;3.13;1.40;;;;;;;5.10;66.00;101078.75;4969761;28;20114;-38
2022/04/01 09:26:38;;;;;;;2.28;1.38;;;;;;;5.55;65.27;101083.47;4981161;28;20049;-37
2022/04/01 09:29:05;;;;;;;2.17;1.15;;;;;;;6.25;63.64;101089.34;4968586;28;20039;-37
2022/04/01 09:31:36;;;;;;;2.67;1.23;;;;;;;6.80;63.29;101091.16;5048327;28;20035;-35
2022/04/01 09:34:06;;;;;;;3.03;1.40;;;;;;;7.06;59.53;101093.91;4975301;28;20022;-39
2022/04/01 09:36:38;;;;;;;9.15;1.45;;;;;;;7.53;59.45;101099.00;4975956;28;20130;-38
2022/04/01 09:39:06;;;;;;;4.63;1.20;;;;;;;8.05;58.00;101098.16;4974711;28;20027;-43
2022/04/01 09:41:43;;;;;;;6.28;1.50;;;;;;;8.24;57.16;101102.44;4968683;28;20051;-41
2022/04/01 09:44:17;;;;;;;4.30;1.17;;;;;;;9.10;58.18;101087.97;4964780;28;20031;-39
2022/04/01 09:46:52;;;;;;;6.22;1.73;;;;;;;9.53;52.78;101088.63;4975815;28;20061;-40
2022/04/01 09:49:29;;;;;;;2.42;1.25;;;;;;;8.89;51.69;101105.38;4984814;28;20076;-39
2022/04/01 09:51:55;;;;;;;3.63;1.13;;;;;;;8.48;51.51;101101.75;4983942;28;20031;-37
2022/04/01 09:54:23;;;;;;;2.05;1.10;;;;;;;8.04;50.30;101110.72;4961008;28;20023;-40
2022/04/01 09:56:54;;;;;;;5.63;1.20;;;;;;;7.84;53.44;101102.03;4961354;28;20050;-40
2022/04/01 09:59:20;;;;;;;2.50;1.20;;;;;;;7.95;53.92;101119.69;4965409;28;20027;-41
2022/04/01 10:01:45;;;;;;;1.50;1.02;;;;;;;8.04;52.79;101110.72;4959845;28;20038;-42
2022/04/01 10:04:12;;;;;;;3.88;1.20;;;;;;;7.96;53.09;101099.94;4966593;28;20062;-39
2022/04/01 10:06:39;;;;;;;7.23;1.20;;;;;;;7.29;53.00;101120.19;4967726;28;20031;-37
2022/04/01 10:09:08;;;;;;;5.25;1.30;;;;;;;7.12;54.75;101122.72;4953661;28;20031;-33
2022/04/01 10:11:43;;;;;;;4.28;1.23;;;;;;;6.50;55.33;101100.31;4968956;28;20430;-38
2022/04/01 10:14:10;;;;;;;2.10;1.00;;;;;;;6.64;59.56;101123.91;4967169;28;20031;-37
2022/04/01 10:16:36;;;;;;;1.00;0.90;;;;;;;7.18;55.82;101127.47;4969192;28;20033;-39
2022/04/01 10:19:13;;;;;;;2.05;1.35;;;;;;;7.38;54.86;101133.53;4969044;28;20114;-44
2022/04/01 10:21:44;;;;;;;3.17;0.98;;;;;;;7.30;53.26;101124.59;4959533;28;20040;-40
2022/04/01 10:24:38;;;;;;;2.95;0.90;;;;;;;7.18;53.78;101138.16;4953080;28;20068;-32
2022/04/01 10:27:03;;;;;;;1.33;0.80;;;;;;;7.22;53.31;101144.09;4955582;28;20043;-37
2022/04/01 10:29:29;;;;;;;4.53;0.90;;;;;;;7.16;51.41;101132.16;4950088;28;20023;-37
2022/04/01 10:31:55;;;;;;;3.50;1.20;;;;;;;7.07;53.91;101126.88;5043547;28;20046;-38
2022/04/01 10:34:23;;;;;;;2.72;1.20;;;;;;;7.11;55.31;101158.53;4964550;28;20068;-37
2022/04/01 10:37:02;;;;;;;2.17;1.30;;;;;;;6.82;54.51;101140.84;4962130;28;20035;-34
2022/04/01 10:39:28;;;;;;;2.47;1.10;;;;;;;7.01;54.77;101131.00;4963548;28;20035;-38
2022/04/01 10:42:11;;;;;;;5.28;1.35;;;;;;;7.33;55.96;101134.97;4957539;28;20473;-38
2022/04/01 10:44:52;;;;;;;2.40;1.50;;;;;;;7.53;54.70;101141.00;4962837;28;20035;-38
2022/04/01 10:47:18;;;;;;;3.67;1.92;;;;;;;7.61;53.54;101149.94;4962411;28;20452;-37
2022/04/01 10:52:30;;;;;;;5.57;1.65;;;;;;;7.70;54.47;101142.81;4961786;28;20185;-37
2022/04/01 10:55:07;;;;;;;4.95;1.50;;;;;;;7.75;53.47;101161.09;4962448;28;20100;-36
2022/04/01 10:57:42;;;;;;;1.63;1.20;;;;;;;7.69;52.30;101162.56;4964570;28;20030;-38
2022/04/01 11:00:14;;;;;;;3.33;1.10;;;;;;;7.56;50.41;101152.25;4958426;28;20026;-36
2022/04/01 11:02:40;;;;;;;3.63;1.20;;;;;;;7.34;53.00;101158.91;4962829;28;20373;-38
2022/04/01 11:05:29;;;;;;;1.80;1.40;;;;;;;7.10;53.72;101140.78;4967031;28;20026;-39
2022/04/01 11:08:22;;;;;;;5.45;1.40;;;;;;;6.80;53.69;101150.84;4952307;28;20054;-33
2022/04/01 11:11:16;;;;;;;5.25;1.40;;;;;;;6.22;52.74;101167.16;4958480;28;20502;-37
2022/04/01 11:13:42;;;;;;;8.85;1.63;;;;;;;5.89;54.34;101166.63;4967285;28;20039;-39
2022/04/01 11:16:21;;;;;;;4.72;1.25;;;;;;;5.54;56.46;101159.22;4953881;28;20030;-41
2022/04/01 11:19:14;;;;;;;4.00;1.50;;;;;;;5.38;58.49;101183.81;4954318;28;20122;-43
2022/04/01 11:21:40;;;;;;;5.75;1.55;;;;;;;5.10;58.81;101181.94;4962030;28;20043;-44
2022/04/01 11:24:45;;;;;;;12.60;1.50;;;;;;;4.87;60.04;101179.53;4958986;28;20051;-43
2022/04/01 11:27:24;;;;;;;5.20;1.50;;;;;;;4.99;59.53;101173.06;4975828;28;20137;-43
2022/04/01 11:30:09;;;;;;;5.22;1.90;;;;;;;5.74;58.14;101181.41;4925404;29;20493;-43
2022/04/01 11:32:36;;;;;;;5.65;1.70;;;;;;;6.61;59.41;101183.03;4945590;28;20053;-42
2022/04/01 11:35:02;;;;;;;13.38;1.80;;;;;;;6.91;53.93;101176.53;4954453;28;20062;-43
2022/04/01 11:37:28;;;;;;;3.13;1.50;;;;;;;6.82;53.57;101170.25;4963636;28;20064;-42
2022/04/01 11:40:11;;;;;;;4.47;1.65;;;;;;;7.46;49.89;101170.25;4963514;28;20345;-44
2022/04/01 11:42:53;;;;;;;3.50;1.38;;;;;;;7.55;49.21;101181.84;4970382;28;20058;-41